Time;durP1;ratioP1;P1;durP2;ratioP2;P2;SDS_P1;SDS_P2;PMS_P1;PMS_P2;Temp;Humidity;BMP_temperature;BMP_pressure;BME280_temperature;BME280_humidity;BME280_pressure;Samples;Min_cycle;Max_cycle;Signal;HPM_P1;HPM_P2
2022/01/08 00:01:17;;;;;;;20.33;13.30;;;1.80;1.00;;;;;;4992867;28;20211;-90
2022/01/08 00:03:44;;;;;;;24.43;13.50;;;1.80;1.00;;;;;;4993234;28;20564;-88
2022/01/08 00:06:12;;;;;;;26.10;14.07;;;1.80;1.00;;;;;;4993154;28;20210;-89
2022/01/08 00:08:39;;;;;;;28.00;14.53;;;1.80;1.00;;;;;;4993466;28;20229;-90
2022/01/08 00:11:08;;;;;;;23.27;13.87;;;1.90;1.00;;;;;;4993195;28;20273;-89
2022/01/08 00:13:35;;;;;;;23.17;14.37;;;1.80;1.00;;;;;;4996583;28;20253;-91
2022/01/08 00:16:04;;;;;;;22.93;13.57;;;1.80;1.00;;;;;;4996886;28;20207;-90
2022/01/08 00:18:31;;;;;;;26.07;14.70;;;1.80;1.00;;;;;;4996536;28;20258;-89
2022/01/08 00:20:58;;;;;;;25.50;14.47;;;1.90;1.00;;;;;;4996705;28;20645;-88
2022/01/08 00:23:25;;;;;;;29.03;14.43;;;1.90;1.00;;;;;;4996551;28;20204;-90
2022/01/08 00:25:52;;;;;;;22.53;12.20;;;1.90;1.00;;;;;;4996680;28;20539;-89
2022/01/08 00:28:19;;;;;;;19.67;10.80;;;1.80;1.00;;;;;;4996474;28;20260;-91
2022/01/08 00:30:48;;;;;;;21.57;12.27;;;1.80;1.00;;;;;;4996285;28;20218;-90
2022/01/08 00:33:16;;;;;;;22.93;12.27;;;1.80;1.00;;;;;;4997026;28;20202;-88
2022/01/08 00:35:43;;;;;;;22.90;12.93;;;1.80;1.00;;;;;;4996442;28;20257;-90
2022/01/08 00:38:10;;;;;;;20.97;11.60;;;1.80;1.00;;;;;;4996228;28;20206;-89
2022/01/08 00:40:37;;;;;;;21.07;11.63;;;1.80;1.00;;;;;;4996667;28;20213;-89
2022/01/08 00:43:05;;;;;;;20.27;11.13;;;1.80;1.00;;;;;;4996189;28;20208;-89
2022/01/08 00:45:32;;;;;;;19.97;12.20;;;1.80;1.00;;;;;;4995875;28;20218;-90
2022/01/08 00:47:59;;;;;;;25.53;14.00;;;1.80;1.00;;;;;;4995964;28;20195;-88
2022/01/08 00:50:30;;;;;;;24.63;12.30;;;1.80;1.00;;;;;;4995590;28;20214;-89
2022/01/08 00:52:57;;;;;;;25.23;12.53;;;1.80;1.00;;;;;;4996036;28;20535;-90
2022/01/08 00:55:24;;;;;;;20.17;12.03;;;1.80;1.00;;;;;;4995924;28;20249;-88
2022/01/08 00:57:53;;;;;;;23.47;12.33;;;1.80;1.00;;;;;;4996074;28;20195;-89
2022/01/08 01:00:20;;;;;;;25.57;13.73;;;1.80;1.00;;;;;;4995987;28;20206;-89
2022/01/08 01:02:47;;;;;;;28.63;13.63;;;1.80;1.00;;;;;;4996115;28;20214;-89
2022/01/08 01:05:14;;;;;;;23.93;13.60;;;1.80;1.00;;;;;;4996146;28;20238;-89
2022/01/08 01:07:43;;;;;;;24.10;12.73;;;1.80;1.00;;;;;;4996036;28;20211;-91
2022/01/08 01:10:11;;;;;;;24.37;12.20;;;1.80;1.00;;;;;;4995787;28;20232;-89
2022/01/08 01:12:38;;;;;;;25.00;12.83;;;1.80;1.00;;;;;;4995911;28;20190;-89
2022/01/08 01:15:07;;;;;;;23.10;13.77;;;1.80;1.00;;;;;;4988948;28;20206;-89
2022/01/08 01:17:34;;;;;;;21.20;11.87;;;1.80;1.00;;;;;;4995461;28;20199;-89
2022/01/08 01:20:01;;;;;;;27.30;13.47;;;1.80;1.00;;;;;;4995574;28;20213;-89
2022/01/08 01:22:39;;;;;;;26.07;12.87;;;1.80;1.00;;;;;;4995500;28;20201;-90
2022/01/08 01:25:11;;;;;;;20.80;11.23;;;1.80;1.00;;;;;;4994752;28;20201;-89
2022/01/08 01:27:55;;;;;;;21.17;12.27;;;1.70;1.00;;;;;;4995062;28;20274;-90
2022/01/08 01:30:38;;;;;;;21.60;11.43;;;1.80;1.00;;;;;;4995208;28;20228;-89
2022/01/08 01:41:42;;;;;;;23.43;11.67;;;1.70;1.00;;;;;;4990235;28;20285;-89
2022/01/08 01:47:04;;;;;;;24.27;11.70;;;1.60;1.00;;;;;;4961785;28;20202;-90
2022/01/08 01:49:32;;;;;;;20.13;11.17;;;1.60;1.00;;;;;;4995227;28;20211;-90
2022/01/08 01:52:00;;;;;;;20.37;10.77;;;1.60;1.00;;;;;;4994898;28;20224;-89
2022/01/08 01:54:28;;;;;;;20.80;11.87;;;1.70;1.00;;;;;;4995308;28;20209;-88
2022/01/08 01:56:59;;;;;;;23.63;12.67;;;1.60;1.00;;;;;;4995132;28;20214;-91
2022/01/08 01:59:27;;;;;;;21.03;12.27;;;1.60;1.00;;;;;;4994959;28;20546;-89
2022/01/08 02:01:54;;;;;;;20.53;11.33;;;1.60;1.00;;;;;;4994636;28;20209;-88
2022/01/08 02:04:22;;;;;;;23.13;11.93;;;1.60;1.00;;;;;;4994654;28;20289;-89
2022/01/08 02:06:49;;;;;;;22.00;11.67;;;1.60;1.00;;;;;;4994913;28;20218;-89
2022/01/08 02:09:17;;;;;;;22.90;12.77;;;1.60;1.00;;;;;;4995025;28;20302;-89
2022/01/08 02:11:59;;;;;;;23.57;12.40;;;1.60;1.00;;;;;;4994643;28;20341;-89
2022/01/08 02:14:27;;;;;;;21.37;12.43;;;1.60;1.00;;;;;;4994838;28;20207;-90
2022/01/08 02:16:54;;;;;;;24.30;11.87;;;1.60;1.00;;;;;;4995189;28;20206;-90
2022/01/08 02:19:22;;;;;;;22.30;12.10;;;1.60;1.00;;;;;;4994647;28;20619;-91
2022/01/08 02:21:52;;;;;;;20.10;11.33;;;1.60;1.00;;;;;;4994658;28;20200;-89
2022/01/08 02:24:20;;;;;;;20.80;12.13;;;1.60;1.00;;;;;;4994652;28;20214;-88
2022/01/08 02:26:47;;;;;;;20.03;11.53;;;1.60;1.00;;;;;;4994813;28;20211;-89
2022/01/08 02:29:15;;;;;;;22.23;12.50;;;1.60;1.00;;;;;;4993989;28;20202;-90
2022/01/08 02:31:52;;;;;;;23.23;11.50;;;1.60;1.00;;;;;;4993909;28;20570;-89
2022/01/08 02:34:19;;;;;;;23.67;11.53;;;1.60;1.00;;;;;;4994723;28;20206;-89
2022/01/08 02:36:46;;;;;;;23.13;12.23;;;1.60;1.00;;;;;;4993932;28;20207;-90
2022/01/08 02:39:15;;;;;;;24.03;11.90;;;1.50;1.00;;;;;;4994223;28;20210;-88
2022/01/08 02:41:42;;;;;;;24.73;13.47;;;1.60;1.00;;;;;;4994317;28;20206;-89
2022/01/08 02:44:09;;;;;;;22.83;12.77;;;1.50;1.00;;;;;;4994432;28;20202;-90
2022/01/08 02:46:39;;;;;;;26.27;13.27;;;1.50;1.00;;;;;;4994526;28;20234;-91
2022/01/08 02:49:06;;;;;;;27.93;13.80;;;1.50;1.00;;;;;;4994129;28;20214;-89
2022/01/08 02:51:35;;;;;;;26.30;13.10;;;1.50;1.00;;;;;;4994125;28;20320;-90
2022/01/08 02:54:02;;;;;;;24.30;13.27;;;1.50;1.00;;;;;;4994097;28;20559;-89
2022/01/08 02:56:31;;;;;;;27.30;13.90;;;1.50;1.00;;;;;;4994240;28;20218;-88
2022/01/08 02:58:58;;;;;;;27.70;14.00;;;1.50;1.00;;;;;;4994198;28;20218;-90
2022/01/08 03:01:25;;;;;;;25.83;11.47;;;1.40;1.00;;;;;;4993837;28;20257;-90
2022/01/08 03:03:56;;;;;;;24.57;12.63;;;1.50;1.00;;;;;;4993881;28;20202;-90
2022/01/08 03:06:23;;;;;;;27.90;13.70;;;1.50;1.00;;;;;;4994192;28;20225;-90
2022/01/08 03:08:50;;;;;;;24.57;12.10;;;1.50;1.00;;;;;;4994649;28;20642;-90
2022/01/08 03:11:18;;;;;;;27.63;13.23;;;1.40;1.00;;;;;;4994310;28;20241;-89
2022/01/08 03:13:47;;;;;;;24.23;12.03;;;1.40;1.00;;;;;;4994087;28;20213;-89
2022/01/08 03:16:14;;;;;;;23.83;12.93;;;1.40;1.00;;;;;;4993385;28;20203;-88
2022/01/08 03:18:41;;;;;;;25.93;11.93;;;1.50;1.00;;;;;;4994090;28;20206;-88
2022/01/08 03:21:14;;;;;;;27.67;12.93;;;1.50;1.00;;;;;;4993691;28;20637;-89
2022/01/08 03:23:47;;;;;;;24.43;12.20;;;1.40;1.00;;;;;;4994441;28;20201;-89
2022/01/08 03:26:16;;;;;;;26.63;12.70;;;1.40;1.00;;;;;;4993778;28;20214;-90
2022/01/08 03:28:44;;;;;;;21.90;12.13;;;1.40;1.00;;;;;;4993491;28;20624;-90
2022/01/08 03:31:13;;;;;;;21.23;10.03;;;1.40;1.00;;;;;;4993261;28;20747;-89
2022/01/08 03:33:40;;;;;;;27.03;13.23;;;1.40;1.00;;;;;;4993440;28;20194;-89
2022/01/08 03:36:08;;;;;;;28.80;13.33;;;1.40;1.00;;;;;;4993432;28;20203;-89
2022/01/08 03:38:35;;;;;;;23.10;11.90;;;1.40;1.00;;;;;;4993459;28;20653;-89
2022/01/08 03:41:02;;;;;;;27.53;13.80;;;1.40;1.00;;;;;;4993207;28;20249;-90
2022/01/08 03:43:29;;;;;;;31.13;14.70;;;1.40;1.00;;;;;;4993396;28;20253;-89
2022/01/08 03:45:57;;;;;;;26.00;13.03;;;1.40;1.00;;;;;;4993357;28;20547;-90
2022/01/08 03:48:31;;;;;;;26.50;12.20;;;1.40;1.00;;;;;;4996617;28;20199;-89
2022/01/08 03:50:59;;;;;;;27.00;12.83;;;1.40;1.00;;;;;;4997162;28;20312;-89
2022/01/08 03:53:27;;;;;;;25.37;12.20;;;1.50;1.00;;;;;;4997109;28;20206;-89
2022/01/08 03:55:55;;;;;;;25.97;13.43;;;1.40;1.00;;;;;;4996900;28;20206;-90
2022/01/08 03:58:25;;;;;;;27.87;14.30;;;1.40;1.00;;;;;;4996658;28;20639;-89
2022/01/08 04:00:52;;;;;;;26.50;13.50;;;1.50;1.00;;;;;;4997092;28;20198;-89
2022/01/08 04:03:19;;;;;;;26.33;11.83;;;1.40;1.00;;;;;;4996769;28;20607;-89
2022/01/08 04:05:49;;;;;;;22.77;11.03;;;1.40;1.00;;;;;;4996841;28;20202;-89
2022/01/08 04:08:17;;;;;;;23.20;11.33;;;1.50;1.00;;;;;;4996519;28;20531;-90
2022/01/08 04:10:44;;;;;;;23.13;11.33;;;1.40;1.00;;;;;;4996434;28;20226;-89
2022/01/08 04:13:16;;;;;;;25.03;12.83;;;1.40;1.00;;;;;;4996335;28;20202;-90
2022/01/08 04:15:46;;;;;;;28.17;16.00;;;1.40;1.00;;;;;;4997115;28;20187;-90
2022/01/08 04:18:13;;;;;;;24.87;13.40;;;1.40;1.00;;;;;;4997675;28;20211;-91
2022/01/08 04:20:57;;;;;;;29.30;13.60;;;1.40;1.00;;;;;;4998334;28;20215;-89
2022/01/08 04:23:25;;;;;;;26.77;11.93;;;1.50;1.00;;;;;;4998998;28;20205;-89
2022/01/08 04:25:53;;;;;;;23.87;12.37;;;1.50;1.00;;;;;;4997660;28;20222;-90
2022/01/08 04:28:20;;;;;;;25.33;12.10;;;1.40;1.00;;;;;;4996836;28;20206;-90
2022/01/08 04:30:48;;;;;;;26.53;15.10;;;1.40;1.00;;;;;;4996560;28;20207;-89
2022/01/08 04:33:15;;;;;;;31.53;16.07;;;1.40;1.00;;;;;;4996496;28;20218;-90
2022/01/08 04:35:42;;;;;;;28.03;15.07;;;1.50;1.00;;;;;;4996485;28;20207;-91
2022/01/08 04:38:09;;;;;;;29.37;13.37;;;1.40;1.00;;;;;;4996582;28;20206;-90
2022/01/08 04:40:37;;;;;;;26.50;12.97;;;1.40;1.00;;;;;;4996320;28;20230;-90
2022/01/08 04:43:05;;;;;;;28.83;13.67;;;1.40;1.00;;;;;;4996376;28;20211;-90
2022/01/08 04:45:32;;;;;;;26.00;15.33;;;1.40;1.00;;;;;;4995613;28;20608;-90
2022/01/08 04:48:02;;;;;;;30.17;14.27;;;1.40;1.00;;;;;;4996282;28;20233;-89
2022/01/08 04:50:30;;;;;;;24.27;12.83;;;1.40;1.00;;;;;;4996330;28;20206;-90
2022/01/08 04:52:57;;;;;;;24.23;12.00;;;1.50;1.00;;;;;;4995939;28;20227;-90
2022/01/08 04:55:26;;;;;;;34.40;16.03;;;1.50;1.00;;;;;;4995811;28;20662;-90
2022/01/08 04:57:54;;;;;;;33.73;17.07;;;1.40;1.00;;;;;;4995707;28;20206;-89
2022/01/08 05:00:23;;;;;;;42.90;19.93;;;1.50;1.00;;;;;;4995376;28;20198;-89
2022/01/08 05:02:50;;;;;;;36.17;17.23;;;1.40;1.00;;;;;;4995835;28;20619;-89
2022/01/08 05:05:18;;;;;;;37.87;18.60;;;1.50;1.00;;;;;;4995880;28;20199;-90
2022/01/08 05:07:45;;;;;;;33.07;18.43;;;1.50;1.00;;;;;;4996115;28;20202;-90
2022/01/08 05:10:13;;;;;;;39.53;19.30;;;1.50;1.00;;;;;;4995640;28;20215;-89
2022/01/08 05:12:40;;;;;;;38.10;18.47;;;1.50;1.00;;;;;;4995825;28;20199;-90
2022/01/08 05:15:09;;;;;;;26.07;13.47;;;1.50;1.00;;;;;;4995991;28;20215;-89
2022/01/08 05:17:38;;;;;;;32.67;16.10;;;1.50;1.00;;;;;;4995239;28;20277;-89
2022/01/08 05:20:09;;;;;;;32.70;17.67;;;1.50;1.00;;;;;;4995615;28;20531;-89
2022/01/08 05:22:49;;;;;;;32.13;17.30;;;1.50;1.00;;;;;;4995529;28;20234;-90
2022/01/08 05:25:18;;;;;;;30.23;15.57;;;1.50;1.00;;;;;;4995012;28;20218;-89
2022/01/08 05:27:46;;;;;;;23.10;12.37;;;1.50;1.00;;;;;;4995247;28;20206;-89
2022/01/08 05:30:17;;;;;;;21.97;12.07;;;1.50;1.00;;;;;;4994919;28;20218;-90
2022/01/08 05:32:44;;;;;;;25.37;12.57;;;1.50;1.00;;;;;;4995134;28;20632;-88
2022/01/08 05:35:11;;;;;;;20.70;11.13;;;1.60;1.00;;;;;;4995056;28;20210;-89
2022/01/08 05:37:38;;;;;;;73.40;30.23;;;1.50;1.00;;;;;;4995067;28;20206;-89
2022/01/08 05:40:06;;;;;;;37.70;20.53;;;1.50;1.00;;;;;;4995110;28;20200;-90
2022/01/08 05:42:33;;;;;;;41.10;23.33;;;1.60;1.00;;;;;;4994412;28;20241;-89
2022/01/08 05:45:00;;;;;;;34.07;18.43;;;1.60;1.00;;;;;;4994808;28;20194;-90
2022/01/08 05:47:32;;;;;;;45.23;25.60;;;1.60;1.00;;;;;;4995175;28;20199;-89
2022/01/08 05:49:59;;;;;;;32.47;18.17;;;1.60;1.00;;;;;;4995133;28;20195;-89
2022/01/08 05:52:26;;;;;;;32.73;19.23;;;1.60;1.00;;;;;;4994276;28;20207;-90
2022/01/08 05:54:53;;;;;;;30.20;17.97;;;1.60;1.00;;;;;;4994784;28;20253;-90
2022/01/08 05:57:20;;;;;;;31.73;19.13;;;1.60;1.00;;;;;;4994439;28;20744;-89
2022/01/08 05:59:47;;;;;;;32.73;17.03;;;1.60;1.00;;;;;;4994723;28;20253;-89
2022/01/08 06:02:14;;;;;;;30.90;18.23;;;1.60;1.00;;;;;;4994458;28;20257;-88
2022/01/08 06:04:42;;;;;;;26.00;13.97;;;1.60;1.00;;;;;;4994781;28;20210;-89
2022/01/08 06:07:09;;;;;;;40.63;22.27;;;1.60;1.00;;;;;;4994465;28;20207;-88
2022/01/08 06:09:36;;;;;;;29.97;15.50;;;1.60;1.00;;;;;;4994296;28;20195;-88
2022/01/08 06:12:04;;;;;;;31.60;16.93;;;1.60;1.00;;;;;;4994253;28;20236;-87
2022/01/08 06:14:31;;;;;;;30.73;16.80;;;1.60;1.00;;;;;;4994791;28;20203;-90
2022/01/08 06:16:58;;;;;;;27.50;14.17;;;1.60;1.00;;;;;;4994559;28;20206;-89
2022/01/08 06:19:25;;;;;;;25.50;13.93;;;1.60;1.00;;;;;;4994549;28;20222;-90
2022/01/08 06:21:54;;;;;;;33.80;15.07;;;1.60;1.00;;;;;;4994274;28;20221;-89
2022/01/08 06:24:21;;;;;;;42.30;18.27;;;1.60;1.00;;;;;;4994302;28;20246;-89
2022/01/08 06:26:48;;;;;;;41.37;16.90;;;1.70;1.00;;;;;;4994463;28;20210;-90
2022/01/08 06:29:15;;;;;;;24.70;13.03;;;1.60;1.00;;;;;;4994217;28;20560;-88
2022/01/08 06:31:42;;;;;;;20.37;11.97;;;1.70;1.00;;;;;;4994106;28;20222;-88
2022/01/08 06:34:09;;;;;;;27.80;14.70;;;1.70;1.00;;;;;;4993848;28;20202;-88
2022/01/08 06:36:36;;;;;;;44.17;18.70;;;1.70;1.00;;;;;;4994375;28;20214;-89
2022/01/08 06:39:05;;;;;;;48.87;20.47;;;1.70;1.00;;;;;;4994417;28;20207;-89
2022/01/08 06:41:32;;;;;;;52.93;23.37;;;1.70;1.00;;;;;;4994616;28;20233;-89
2022/01/08 06:43:59;;;;;;;43.57;20.83;;;1.70;1.00;;;;;;4994301;28;20190;-88
2022/01/08 06:46:27;;;;;;;54.33;24.47;;;1.80;1.00;;;;;;4994475;28;20226;-88
2022/01/08 06:48:54;;;;;;;38.00;17.13;;;1.70;1.00;;;;;;4993872;28;20653;-87
2022/01/08 06:51:21;;;;;;;32.80;13.97;;;1.80;1.00;;;;;;4993965;28;20657;-87
2022/01/08 06:53:48;;;;;;;29.67;12.80;;;1.80;1.00;;;;;;4994089;28;20277;-89
2022/01/08 06:56:17;;;;;;;20.53;11.10;;;1.80;1.00;;;;;;4993868;28;20198;-87
2022/01/08 06:58:45;;;;;;;19.77;11.17;;;1.80;1.00;;;;;;4993655;28;20232;-88
2022/01/08 07:01:12;;;;;;;19.97;10.93;;;1.80;1.00;;;;;;4993731;28;20206;-88
2022/01/08 07:03:39;;;;;;;23.30;11.70;;;1.80;1.00;;;;;;4993812;28;20209;-88
2022/01/08 07:06:06;;;;;;;32.13;13.63;;;1.80;1.00;;;;;;4993921;28;20221;-89
2022/01/08 07:08:33;;;;;;;29.23;16.17;;;1.80;1.00;;;;;;4993981;28;20224;-89
2022/01/08 07:11:00;;;;;;;25.37;12.03;;;1.80;1.00;;;;;;4993980;28;20238;-89
2022/01/08 07:13:29;;;;;;;24.07;12.70;;;1.80;1.00;;;;;;4993518;28;20556;-89
2022/01/08 07:15:56;;;;;;;24.97;13.17;;;1.80;1.00;;;;;;4993408;28;20202;-87
2022/01/08 07:18:23;;;;;;;22.43;13.07;;;1.80;1.00;;;;;;4993513;28;20199;-87
2022/01/08 07:20:51;;;;;;;21.47;10.77;;;1.80;1.00;;;;;;4995405;28;20194;-89
2022/01/08 07:23:19;;;;;;;20.50;11.43;;;1.90;1.00;;;;;;4998262;28;20660;-89
2022/01/08 07:25:46;;;;;;;21.90;11.10;;;1.90;1.00;;;;;;4999062;28;20202;-88
2022/01/08 07:28:13;;;;;;;18.87;10.87;;;1.90;1.00;;;;;;4999331;28;20553;-90
2022/01/08 07:30:42;;;;;;;20.87;11.37;;;1.90;1.00;;;;;;4998235;28;20206;-90
2022/01/08 07:33:11;;;;;;;18.40;9.80;;;1.90;1.00;;;;;;4998923;28;20226;-89
2022/01/08 07:35:49;;;;;;;20.97;10.70;;;1.90;1.00;;;;;;5006146;28;20210;-90
2022/01/08 07:44:45;;;;;;;18.77;10.03;;;2.00;1.00;;;;;;5005329;28;20249;-90
2022/01/08 07:47:50;;;;;;;31.37;15.57;;;2.00;1.00;;;;;;5001607;28;20210;-92
2022/01/08 07:50:19;;;;;;;26.27;15.20;;;2.00;1.00;;;;;;5002851;28;20191;-90
2022/01/08 07:52:46;;;;;;;22.73;13.40;;;2.10;1.00;;;;;;5003694;28;20227;-90
2022/01/08 07:55:15;;;;;;;20.93;12.13;;;2.10;1.00;;;;;;4998989;28;20545;-89
2022/01/08 07:57:49;;;;;;;18.73;11.17;;;2.10;1.00;;;;;;5005745;28;20194;-91
2022/01/08 08:00:16;;;;;;;25.07;12.17;;;2.10;1.00;;;;;;5002566;28;20203;-88
2022/01/08 08:02:54;;;;;;;29.67;16.73;;;2.10;1.00;;;;;;5003829;28;20203;-90
2022/01/08 08:05:31;;;;;;;25.03;13.63;;;2.20;1.00;;;;;;5001895;28;20253;-92
2022/01/08 08:08:01;;;;;;;25.07;13.93;;;2.20;1.00;;;;;;5008220;28;20204;-91
2022/01/08 08:10:29;;;;;;;24.90;14.17;;;2.20;1.00;;;;;;5000856;28;20245;-91
2022/01/08 08:13:14;;;;;;;21.97;13.10;;;2.20;1.00;;;;;;5001620;28;20285;-91
2022/01/08 08:15:44;;;;;;;23.50;14.23;;;2.20;1.00;;;;;;5006058;28;20207;-92
2022/01/08 08:18:26;;;;;;;22.10;13.30;;;2.20;1.00;;;;;;5000653;28;20223;-92
2022/01/08 08:20:59;;;;;;;20.47;10.90;;;2.20;1.00;;;;;;5003638;28;20214;-89
2022/01/08 08:23:26;;;;;;;25.87;12.50;;;2.20;1.00;;;;;;5004544;28;20702;-91
2022/01/08 08:25:54;;;;;;;19.10;10.70;;;2.20;1.00;;;;;;5002838;28;20241;-92
2022/01/08 08:28:29;;;;;;;23.97;12.30;;;2.20;1.00;;;;;;5002792;28;20187;-91
2022/01/08 08:30:56;;;;;;;21.00;12.77;;;2.30;1.00;;;;;;5005530;28;20201;-92
2022/01/08 08:33:40;;;;;;;17.10;9.90;;;2.30;1.00;;;;;;5003208;28;20231;-90
2022/01/08 08:36:14;;;;;;;21.90;12.70;;;2.30;1.00;;;;;;5002002;28;20214;-92
2022/01/08 08:38:50;;;;;;;24.73;14.03;;;2.30;1.00;;;;;;5001202;28;20203;-90
2022/01/08 08:41:32;;;;;;;23.90;14.70;;;2.40;1.00;;;;;;5002905;28;20187;-89
2022/01/08 08:43:59;;;;;;;31.57;18.10;;;2.40;1.00;;;;;;5000169;28;20203;-90
2022/01/08 08:47:03;;;;;;;34.77;20.40;;;2.50;1.00;;;;;;5002068;28;20213;-91
2022/01/08 08:49:49;;;;;;;27.63;16.90;;;2.50;1.00;;;;;;5003589;28;20223;-91
2022/01/08 08:52:16;;;;;;;25.97;15.97;;;2.50;1.00;;;;;;4999668;28;20226;-89
2022/01/08 08:55:01;;;;;;;27.03;13.73;;;2.50;1.00;;;;;;5001257;28;20196;-90
2022/01/08 08:57:29;;;;;;;21.70;14.10;;;2.60;1.00;;;;;;5001573;28;20206;-88
2022/01/08 09:00:00;;;;;;;21.33;13.10;;;2.60;1.00;;;;;;5004168;28;20203;-90
2022/01/08 09:02:30;;;;;;;22.83;13.27;;;2.60;1.00;;;;;;5002320;28;20213;-91
2022/01/08 09:08:03;;;;;;;18.63;11.40;;;2.60;1.00;;;;;;4995574;28;20266;-91
2022/01/08 09:10:32;;;;;;;19.57;11.50;;;2.50;1.00;;;;;;5003246;28;20226;-90
2022/01/08 09:13:09;;;;;;;23.37;13.07;;;2.50;1.00;;;;;;5002252;28;20238;-89
2022/01/08 09:15:41;;;;;;;20.60;12.23;;;2.50;1.00;;;;;;4983441;28;20292;-89
2022/01/08 09:18:24;;;;;;;21.57;12.33;;;2.50;1.00;;;;;;5013318;28;20204;-91
2022/01/08 09:20:59;;;;;;;24.17;14.10;;;2.50;1.00;;;;;;5000367;28;20203;-91
2022/01/08 09:23:39;;;;;;;24.60;14.90;;;2.40;1.00;;;;;;5001087;28;20258;-89
2022/01/08 09:29:07;;;;;;;27.30;15.47;;;2.40;1.00;;;;;;4999824;28;20203;-91
2022/01/08 09:31:52;;;;;;;25.77;13.83;;;2.40;1.00;;;;;;4999301;28;20203;-89
2022/01/08 09:37:08;;;;;;;24.20;13.13;;;2.30;1.00;;;;;;4997519;28;20657;-89
2022/01/08 09:39:35;;;;;;;22.30;11.83;;;2.30;1.00;;;;;;4998924;28;20253;-87
2022/01/08 09:42:04;;;;;;;23.23;13.53;;;2.30;1.00;;;;;;5000265;28;20596;-89
2022/01/08 09:44:31;;;;;;;19.73;9.83;;;2.30;1.00;;;;;;4998863;28;20216;-90
2022/01/08 09:47:12;;;;;;;17.03;9.23;;;2.30;1.00;;;;;;4999730;28;20254;-90
2022/01/08 09:49:42;;;;;;;15.17;8.73;;;2.30;1.00;;;;;;5001905;28;20194;-90
2022/01/08 09:52:14;;;;;;;19.23;11.03;;;2.30;1.00;;;;;;5001743;28;20723;-89
2022/01/08 09:54:44;;;;;;;18.93;9.20;;;2.30;1.00;;;;;;5006176;28;20531;-88
2022/01/08 09:57:10;;;;;;;17.13;9.57;;;2.30;1.00;;;;;;5003164;28;20207;-89
2022/01/08 09:59:44;;;;;;;18.77;11.13;;;2.30;1.00;;;;;;4994982;28;20203;-91
2022/01/08 10:02:26;;;;;;;16.40;9.27;;;2.30;1.00;;;;;;4996887;28;20215;-90
2022/01/08 10:04:53;;;;;;;16.10;9.13;;;2.40;1.00;;;;;;4992978;28;20689;-89
2022/01/08 10:07:34;;;;;;;16.93;7.90;;;2.40;1.00;;;;;;5000966;28;20202;-89
2022/01/08 10:10:33;;;;;;;19.77;10.53;;;2.30;1.00;;;;;;4990189;28;20191;-88
2022/01/08 10:13:01;;;;;;;15.30;9.13;;;2.40;1.00;;;;;;4989671;28;20259;-91
2022/01/08 10:18:37;;;;;;;16.93;10.20;;;2.40;1.00;;;;;;4992323;28;20199;-90
2022/01/08 10:21:39;;;;;;;13.70;7.90;;;2.40;1.00;;;;;;4997796;28;20557;-88
2022/01/08 10:24:08;;;;;;;15.27;8.87;;;2.40;1.00;;;;;;4996123;28;20223;-87
2022/01/08 10:26:37;;;;;;;12.67;8.37;;;2.30;1.00;;;;;;5002782;28;20195;-91
2022/01/08 10:29:11;;;;;;;15.33;9.13;;;2.40;1.00;;;;;;5003505;28;20204;-89
2022/01/08 10:31:51;;;;;;;14.50;8.63;;;2.30;1.00;;;;;;5000575;28;20604;-90
2022/01/08 10:34:33;;;;;;;19.83;11.33;;;2.30;1.00;;;;;;4998584;28;20222;-89
2022/01/08 10:37:08;;;;;;;12.63;7.60;;;2.40;1.00;;;;;;4992468;28;20214;-90
2022/01/08 10:39:43;;;;;;;14.23;7.77;;;2.40;1.00;;;;;;4998404;28;20202;-90
2022/01/08 10:42:17;;;;;;;13.83;8.63;;;2.40;1.00;;;;;;4999176;28;20267;-92
2022/01/08 10:44:51;;;;;;;13.50;8.17;;;2.50;1.00;;;;;;5004078;28;20652;-91
2022/01/08 10:47:41;;;;;;;14.47;9.00;;;2.60;1.00;;;;;;5001173;28;20209;-89
2022/01/08 10:50:27;;;;;;;15.43;9.53;;;2.60;1.00;;;;;;4997605;28;20217;-89
2022/01/08 10:52:54;;;;;;;15.23;7.77;;;2.70;1.00;;;;;;4991981;28;20245;-87
2022/01/08 10:55:38;;;;;;;12.27;7.40;;;2.80;1.00;;;;;;4982708;28;20721;-91
2022/01/08 10:58:05;;;;;;;14.30;7.77;;;2.90;1.00;;;;;;4979877;28;20287;-90
2022/01/08 11:00:45;;;;;;;17.37;10.10;;;2.90;1.00;;;;;;4986384;28;20233;-88
2022/01/08 11:03:30;;;;;;;16.67;8.90;;;2.90;1.00;;;;;;5000898;28;20569;-91
2022/01/08 11:06:30;;;;;;;13.47;8.70;;;2.90;1.00;;;;;;4997274;28;20260;-93
2022/01/08 11:09:23;;;;;;;14.00;8.30;;;3.10;1.00;;;;;;4973765;28;20213;-91
2022/01/08 11:12:18;;;;;;;13.87;8.03;;;3.10;1.00;;;;;;5004262;28;20226;-92
2022/01/08 11:14:59;;;;;;;14.00;8.20;;;3.10;1.00;;;;;;5002002;28;20373;-89
2022/01/08 11:17:54;;;;;;;15.03;9.10;;;3.10;1.00;;;;;;4997804;28;20221;-91
2022/01/08 11:20:34;;;;;;;17.43;10.60;;;3.10;1.00;;;;;;4999069;28;20572;-89
2022/01/08 11:23:15;;;;;;;20.20;12.30;;;3.10;1.00;;;;;;5004919;28;20218;-93
2022/01/08 11:25:49;;;;;;;19.50;11.37;;;3.10;1.00;;;;;;5001204;28;20203;-91
2022/01/08 11:28:19;;;;;;;22.00;13.73;;;3.10;1.00;;;;;;5004645;28;20267;-92
2022/01/08 11:31:04;;;;;;;19.90;11.70;;;3.10;1.00;;;;;;5001381;28;20203;-92
2022/01/08 11:36:37;;;;;;;27.53;12.80;;;3.10;1.00;;;;;;4996491;28;20174;-89
2022/01/08 11:39:15;;;;;;;15.37;9.23;;;3.10;1.00;;;;;;5011854;28;20213;-93
2022/01/08 11:41:49;;;;;;;19.73;10.33;;;3.00;1.00;;;;;;5010146;28;20184;-92
2022/01/08 11:44:18;;;;;;;16.00;9.17;;;2.90;1.00;;;;;;5008050;28;20224;-89
2022/01/08 11:46:46;;;;;;;12.97;8.03;;;2.90;1.00;;;;;;5004876;28;20198;-87
2022/01/08 11:49:19;;;;;;;19.73;10.97;;;2.90;1.00;;;;;;5009930;28;20214;-91
2022/01/08 11:52:12;;;;;;;17.67;9.80;;;2.90;1.00;;;;;;5003866;28;20207;-90
2022/01/08 11:54:43;;;;;;;16.27;9.40;;;2.80;1.00;;;;;;5006868;28;20232;-91
2022/01/08 11:57:35;;;;;;;14.23;8.73;;;2.80;1.00;;;;;;5006051;28;20166;-95
2022/01/08 12:00:44;;;;;;;16.73;9.70;;;2.80;1.00;;;;;;5016994;28;20234;-92
2022/01/08 12:03:29;;;;;;;21.77;10.80;;;2.70;1.00;;;;;;5010753;28;20206;-92
2022/01/08 12:06:50;;;;;;;17.67;10.40;;;2.70;1.00;;;;;;5009451;28;20203;-91
2022/01/08 12:09:22;;;;;;;16.93;9.00;;;2.80;1.00;;;;;;4948643;29;20199;-89
2022/01/08 12:11:58;;;;;;;18.33;9.77;;;2.80;1.00;;;;;;4969323;28;20259;-90
2022/01/08 12:14:27;;;;;;;21.37;11.93;;;2.80;1.00;;;;;;5003992;28;20222;-90
2022/01/08 12:16:58;;;;;;;21.57;12.80;;;2.80;1.00;;;;;;5003466;28;20668;-92
2022/01/08 12:20:00;;;;;;;21.50;12.50;;;2.80;1.00;;;;;;5009113;28;20216;-92
2022/01/08 12:26:51;;;;;;;25.07;14.30;;;2.80;1.00;;;;;;4931423;29;20195;-94
2022/01/08 12:29:33;;;;;;;20.37;11.90;;;2.80;99.90;;;;;;4930680;29;20205;-93
2022/01/08 12:32:40;;;;;;;27.77;13.53;;;2.70;99.90;;;;;;4925906;29;20213;-92
2022/01/08 12:35:35;;;;;;;25.80;12.60;;;2.70;99.90;;;;;;4923167;29;20223;-93
2022/01/08 12:38:27;;;;;;;28.83;14.07;;;2.70;99.90;;;;;;4927155;29;20200;-92
2022/01/08 12:41:04;;;;;;;26.27;13.87;;;2.70;99.90;;;;;;4928248;29;20224;-91
2022/01/08 12:50:35;;;;;;;17.60;9.73;;;2.60;99.90;;;;;;4980225;28;20247;-93
2022/01/08 12:53:35;;;;;;;17.77;11.17;;;2.50;99.90;;;;;;4980522;28;20188;-94
2022/01/08 12:56:23;;;;;;;20.23;11.30;;;2.50;99.90;;;;;;4970839;29;20671;-92
2022/01/08 12:58:53;;;;;;;26.07;14.33;;;2.50;99.90;;;;;;4956731;29;20211;-91
2022/01/08 13:01:32;;;;;;;31.83;18.07;;;2.50;99.90;;;;;;4963556;29;20191;-91
2022/01/08 13:04:14;;;;;;;31.67;16.57;;;2.40;99.90;;;;;;4967472;28;20213;-94
2022/01/08 13:07:02;;;;;;;29.50;13.80;;;2.50;99.90;;;;;;4966393;29;20204;-90
2022/01/08 13:09:37;;;;;;;24.10;13.27;;;2.50;1.00;;;;;;4971173;29;20220;-91
2022/01/08 13:12:35;;;;;;;24.97;13.83;;;2.50;99.90;;;;;;4965135;29;20203;-93
2022/01/08 13:15:09;;;;;;;29.47;16.20;;;2.50;99.90;;;;;;4946816;29;20233;-92
2022/01/08 13:18:05;;;;;;;17.47;10.30;;;2.50;1.00;;;;;;4947230;29;20177;-93
2022/01/08 13:20:32;;;;;;;18.60;10.57;;;2.60;1.00;;;;;;4946946;29;20200;-90
2022/01/08 13:23:33;;;;;;;;;;;;;;;;;;;;;
2022/01/08 13:26:01;;;;;;;32.60;18.43;;;2.70;1.00;;;;;;4969015;29;20207;-91
2022/01/08 13:28:28;;;;;;;31.57;18.27;;;2.70;1.00;;;;;;4962856;29;20218;-92
2022/01/08 13:31:11;;;;;;;29.67;16.57;;;2.70;1.00;;;;;;4966398;29;20235;-92
2022/01/08 13:33:55;;;;;;;43.87;20.17;;;2.70;1.00;;;;;;4964951;29;20307;-90
2022/01/08 13:36:30;;;;;;;34.07;17.57;;;2.70;1.00;;;;;;4944390;29;20284;-91
2022/01/08 13:39:01;;;;;;;34.77;18.30;;;2.80;99.90;;;;;;4943953;29;20240;-90
2022/01/08 13:41:34;;;;;;;36.73;16.47;;;2.70;99.90;;;;;;4945818;29;20300;-92
2022/01/08 13:44:04;;;;;;;37.53;18.57;;;2.70;99.90;;;;;;4949156;29;20189;-92
2022/01/08 13:46:34;;;;;;;43.27;21.50;;;2.70;99.90;;;;;;4947445;29;20212;-89
2022/01/08 13:49:02;;;;;;;34.60;18.23;;;2.70;99.90;;;;;;4946647;29;20237;-92
2022/01/08 13:52:16;;;;;;;32.57;17.77;;;2.70;99.90;;;;;;4946541;29;20196;-91
2022/01/08 13:55:13;;;;;;;35.70;18.23;;;2.70;99.90;;;;;;4942876;29;20233;-92
2022/01/08 13:58:01;;;;;;;33.97;16.13;;;2.70;99.90;;;;;;4943018;29;20219;-91
2022/01/08 14:00:50;;;;;;;25.57;12.33;;;2.70;99.90;;;;;;4942222;29;20214;-92